M I D A S
Marine Information and Data Acquisition System
Tripno 1555 of the Zeeleeuw from 2008-08-05 05:30:06 to 2008-08-05 16:48:53
Back to CruiseResearch ActivitiesStationsMapUnderway DataData graphs

EquipmentUnitsComment
TimeDGPSUTC
LatitudeDGPSDM.mWGS84
LongitudeDGPSDM.mWGS84
HeadingGyrodeg 
SOGDGPSknotsSpeed over ground
COGDGPSdegCourse over ground
DepthEcho soundermeters200 kHz
Missing or incorrect values are displayed as -999
Navigation data collected by the RV Zeeleeuw from 2008-08-05 05:30:06 to 2008-08-05 16:53:47
Time Latitude Longitude Heading SOG COG Depth
2008-08-05 05:31:11 51°13.639 2°55.992 111.6 3.5 293 -999
2008-08-05 05:32:11 51°13.669 2°55.893 117 4.5 298 -999
2008-08-05 05:33:11 51°13.697 2°55.801 105.1 3.4 290 -999
2008-08-05 05:34:11 51°13.705 2°55.734 84.4 1.8 274 12.6
2008-08-05 05:35:11 51°13.713 2°55.722 41.3 1.6 25 12.5
2008-08-05 05:36:11 51°13.777 2°55.689 328 6.1 327 11.5
2008-08-05 05:37:11 51°13.893 2°55.587 332.6 9 331 11.6
2008-08-05 05:38:11 51°14.028 2°55.476 333.8 9.3 333 11.8
2008-08-05 05:39:11 51°14.17 2°55.369 333.5 9.5 333 12.1
2008-08-05 05:40:11 51°14.282 2°55.254 320.7 6.6 320 11.8
2008-08-05 05:41:11 51°14.354 2°55.129 307.5 7.6 307 11.1
2008-08-05 05:42:11 51°14.47 2°54.913 316.9 12.3 321 11.5
2008-08-05 05:43:12 51°14.657 2°54.762 336.1 12.5 335 10.6
2008-08-05 05:44:12 51°14.849 2°54.638 339.6 12.4 340 10.6
2008-08-05 05:45:12 51°15.036 2°54.502 332.6 12.3 332 9.8
2008-08-05 05:46:12 51°15.217 2°54.342 330.4 12.4 330 9.9
2008-08-05 05:47:12 51°15.396 2°54.179 330 12.4 330 10.6
2008-08-05 05:48:12 51°15.576 2°54.015 330.6 12.4 330 11.2
2008-08-05 05:49:12 51°15.754 2°53.848 328 12.4 328 11.7
2008-08-05 05:50:12 51°15.931 2°53.678 330.6 12.4 330 11.9
2008-08-05 05:51:12 51°16.113 2°53.517 331.3 12.6 331 12.4
2008-08-05 05:52:12 51°16.295 2°53.355 329 12.4 330 12.6
2008-08-05 05:53:12 51°16.473 2°53.184 328 12.5 328 12.6
2008-08-05 05:54:12 51°16.652 2°53.015 328.6 12.5 330 12.4
2008-08-05 05:55:12 51°16.833 2°52.854 332 12.4 332 10.3
2008-08-05 05:56:12 51°17.023 2°52.717 340.2 12.5 343 10.8
2008-08-05 05:57:12 51°17.23 2°52.661 355.5 12.7 359 10.6
2008-08-05 05:58:12 51°17.442 2°52.65 359 12.8 357 11
2008-08-05 05:59:12 51°17.653 2°52.641 359.1 12.6 2 11.2
2008-08-05 06:00:12 51°17.859 2°52.707 14.5 12.5 15 11.2
2008-08-05 06:01:12 51°18.066 2°52.771 11.5 12.7 8 11.5
2008-08-05 06:02:12 51°18.274 2°52.824 9.3 12.6 8 11.5
2008-08-05 06:03:12 51°18.483 2°52.87 9.5 12.7 12 12.1
2008-08-05 06:04:12 51°18.669 2°53.011 39.2 12.6 36 12.2
2008-08-05 06:05:12 51°18.803 2°53.261 56.2 12.4 50 12.4
2008-08-05 06:06:12 51°18.927 2°53.523 54.4 12.3 54 12.5
2008-08-05 06:07:12 51°19.053 2°53.784 55.4 12.5 50 12.5
2008-08-05 06:08:12 51°19.18 2°54.045 55.1 12.4 51 12.6
2008-08-05 06:09:12 51°19.31 2°54.301 53.5 12.4 52 12.6
2008-08-05 06:10:12 51°19.441 2°54.555 53.8 12.3 51 12.6
2008-08-05 06:11:12 51°19.573 2°54.808 50.8 12.4 47 12.6
2008-08-05 06:12:12 51°19.704 2°55.063 55.9 12.4 51 13
2008-08-05 06:13:12 51°19.833 2°55.317 54.3 12.5 51 12.9
2008-08-05 06:14:12 51°19.961 2°55.577 54.7 12.3 53 13
2008-08-05 06:15:12 51°20.086 2°55.836 55.2 12.2 51 13
2008-08-05 06:16:12 51°20.211 2°56.092 52.8 12.2 53 13.1
2008-08-05 06:17:12 51°20.344 2°56.337 50.8 12.3 51 13.1
2008-08-05 06:18:12 51°20.471 2°56.592 56 12.3 52 13.1
2008-08-05 06:19:12 51°20.588 2°56.859 56.3 12.3 54 13
2008-08-05 06:20:12 51°20.713 2°57.115 55.8 12.3 53 13.1
2008-08-05 06:21:12 51°20.839 2°57.37 55.3 12.2 53 13
2008-08-05 06:22:12 51°20.967 2°57.621 53.5 12.2 48 12.8
2008-08-05 06:23:12 51°21.093 2°57.878 55.8 12.3 51 12.9
2008-08-05 06:24:12 51°21.221 2°58.128 53.8 12.2 51 12.9
2008-08-05 06:25:12 51°21.347 2°58.383 54.8 12.3 54 12.8
2008-08-05 06:26:12 51°21.471 2°58.639 56.5 12.4 47 12.8
2008-08-05 06:27:12 51°21.597 2°58.892 54.7 12.2 52 12.7
2008-08-05 06:28:12 51°21.724 2°59.144 53.6 12.1 54 12.6
2008-08-05 06:29:12 51°21.854 2°59.391 55.2 12.2 50 12.5
2008-08-05 06:30:12 51°21.98 2°59.647 55.1 12.2 53 12.3
2008-08-05 06:31:12 51°22.11 2°59.896 53.6 12.2 50 12.2
2008-08-05 06:32:12 51°22.236 3°0.145 54.9 12.2 49 12.1
2008-08-05 06:33:12 51°22.364 3°0.394 56.1 12 54 12.1
2008-08-05 06:34:12 51°22.455 3°0.676 66.7 11.8 64 11.9
2008-08-05 06:35:12 51°22.546 3°0.955 65.1 11.9 64 11.8
2008-08-05 06:36:12 51°22.654 3°1.221 58.1 12 55 11.9
2008-08-05 06:37:12 51°22.754 3°1.461 59.3 8.7 53 11.5
2008-08-05 06:38:12 51°22.817 3°1.598 54.6 4.8 48 12.1
2008-08-05 06:39:12 51°22.871 3°1.634 12.3 2.8 6 12.1
2008-08-05 06:40:12 51°22.913 3°1.64 7.2 2.3 1 12.2
2008-08-05 06:41:12 51°22.947 3°1.638 2.6 1.9 356 12.3
2008-08-05 06:42:12 51°22.97 3°1.635 4.2 1.1 355 12.3
2008-08-05 06:43:12 51°22.986 3°1.631 355 0.9 339 12.4
2008-08-05 06:44:12 51°22.998 3°1.625 348 0.7 341 12.3
2008-08-05 06:45:12 51°23.009 3°1.619 343.8 0.6 336 12.4
2008-08-05 06:46:12 51°23.018 3°1.615 343 0.6 352 12.4
2008-08-05 06:47:12 51°23.025 3°1.61 345.1 0.5 338 12.5
2008-08-05 06:48:12 51°23.033 3°1.607 348.3 0.5 352 12.3
2008-08-05 06:49:12 51°23.042 3°1.602 348.5 0.6 345 12.3
2008-08-05 06:50:12 51°23.05 3°1.597 348.4 0.5 338 12.3
2008-08-05 06:51:12 51°23.062 3°1.592 352 1.5 354 12.4
2008-08-05 06:52:12 51°23.106 3°1.619 57.7 3.4 55 12.8
2008-08-05 06:53:12 51°23.089 3°1.687 141.3 2.5 150 12.3
2008-08-05 06:54:12 51°23.06 3°1.711 144.2 1.6 155 12
2008-08-05 06:55:12 51°23.037 3°1.729 139.7 1.4 149 11.7
2008-08-05 06:56:12 51°23.027 3°1.732 149.7 0.4 185 11.5
2008-08-05 06:57:12 51°23.021 3°1.726 159.6 0.4 225 11.7
2008-08-05 06:58:12 51°23.016 3°1.715 168.6 0.5 244 11.6
2008-08-05 06:59:12 51°23.013 3°1.703 174 0.6 228 11.8
2008-08-05 07:00:12 51°22.987 3°1.731 113 2.9 102 11.4
2008-08-05 07:01:12 51°23.024 3°1.84 56.4 5.9 48 12.7
2008-08-05 07:02:12 51°23.078 3°1.926 54.1 3.7 42 12.8
2008-08-05 07:03:12 51°23.113 3°1.981 65.3 2.3 53 12.6
2008-08-05 07:04:12 51°23.124 3°1.997 96 0.3 26 12.5
2008-08-05 07:05:12 51°23.126 3°1.997 116.1 0.2 296 12.5
2008-08-05 07:06:12 51°23.126 3°1.99 131.8 0.3 272 12.5
2008-08-05 07:07:12 51°23.126 3°1.979 144.5 0.4 277 12.7
2008-08-05 07:08:12 51°23.114 3°1.993 120.5 3.2 113 12.5
2008-08-05 07:09:12 51°23.146 3°2.091 55.3 4 43 11.7
2008-08-05 07:10:12 51°23.183 3°2.138 62.3 1.5 31 10.4
2008-08-05 07:11:12 51°23.192 3°2.146 91 0.4 26 10.3
2008-08-05 07:12:12 51°23.195 3°2.149 104.1 0.2 23 10.2
2008-08-05 07:13:12 51°23.193 3°2.155 114.1 1.1 116 10.2
2008-08-05 07:14:12 51°23.197 3°2.207 77.6 2.7 65 12.4
2008-08-05 07:15:12 51°23.214 3°2.265 77.7 1.2 54 12.4
2008-08-05 07:16:12 51°23.223 3°2.279 87.7 0.6 54 12.4
2008-08-05 07:17:12 51°23.226 3°2.289 102.2 0.2 95 12.2
2008-08-05 07:18:12 51°23.226 3°2.29 121 0.2 231 12.1
2008-08-05 07:19:12 51°23.222 3°2.293 121.7 0.7 128 11.9
2008-08-05 07:20:12 51°23.224 3°2.323 76.8 1.7 56 11.5
2008-08-05 07:21:12 51°23.242 3°2.36 72.4 1.3 40 10.3
2008-08-05 07:22:12 51°23.261 3°2.37 55.8 1.1 12 10.1
2008-08-05 07:23:12 51°23.28 3°2.371 52.4 1.1 1 10.1
2008-08-05 07:24:12 51°23.298 3°2.368 48.4 1 356 10.4
2008-08-05 07:25:12 51°23.316 3°2.362 45.8 1 347 10.8
2008-08-05 07:26:12 51°23.335 3°2.355 40 1.4 357 11.2
2008-08-05 07:27:12 51°23.352 3°2.374 83.4 1.4 85 10.7
2008-08-05 07:28:12 51°23.34 3°2.418 111.7 2 121 11.8
2008-08-05 07:29:12 51°23.337 3°2.49 90.6 3.2 90 12.8
2008-08-05 07:30:12 51°23.329 3°2.57 105.3 2.4 109 12.8
2008-08-05 07:31:12 51°23.32 3°2.595 117.6 0.5 138 12.9
2008-08-05 07:32:12 51°23.312 3°2.595 134.2 0.5 206 12.9
2008-08-05 07:33:12 51°23.305 3°2.583 146.9 0.7 241 13
2008-08-05 07:34:12 51°23.298 3°2.57 148.5 1 183 12.9
2008-08-05 07:35:12 51°23.291 3°2.603 81.7 2.1 65 13
2008-08-05 07:36:12 51°23.319 3°2.672 73.9 3.3 64 12.8
2008-08-05 07:37:12 51°23.349 3°2.733 56.9 2.9 40 12.6
2008-08-05 07:38:12 51°23.383 3°2.776 59 2.1 33 11.7
2008-08-05 07:39:12 51°23.404 3°2.794 64.6 1.1 29 10.6
2008-08-05 07:40:12 51°23.42 3°2.807 69.6 1.1 31 9.3
2008-08-05 07:41:12 51°23.43 3°2.822 87.7 0.5 54 8.7
2008-08-05 07:42:12 51°23.429 3°2.823 107.8 0.4 226 9
2008-08-05 07:43:12 51°23.422 3°2.815 122.9 0.6 188 8.2
2008-08-05 07:44:12 51°23.416 3°2.836 88.8 1.6 77 10.2
2008-08-05 07:45:12 51°23.426 3°2.865 81.9 0.8 36 11.5
2008-08-05 07:46:12 51°23.43 3°2.873 93.8 0.3 36 11.7
2008-08-05 07:47:12 51°23.431 3°2.876 105.1 0.2 132 11.7
2008-08-05 07:48:12 51°23.427 3°2.881 116 0.6 145 11.7
2008-08-05 07:49:12 51°23.43 3°2.93 79.5 3.2 71 12
2008-08-05 07:50:12 51°23.469 3°3.019 59.2 4.5 51 14.4
2008-08-05 07:51:12 51°23.512 3°3.098 62.2 3.6 49 14.2
2008-08-05 07:52:12 51°23.542 3°3.157 70.4 1.9 49 13.9
2008-08-05 07:53:12 51°23.553 3°3.177 86.6 0.7 38 13.8
2008-08-05 07:54:12 51°23.557 3°3.185 99.4 0.2 34 13.8
2008-08-05 07:55:12 51°23.559 3°3.186 111.7 0.2 96 13.8
2008-08-05 07:56:12 51°23.567 3°3.21 69 1.7 34 13.6
2008-08-05 07:57:12 51°23.591 3°3.209 26 1.1 298 13.4
2008-08-05 07:58:12 51°23.595 3°3.187 17.1 0.9 288 13.3
2008-08-05 07:59:12 51°23.601 3°3.166 12.4 1 294 13.4
2008-08-05 08:00:12 51°23.608 3°3.145 2.3 0.8 310 13.3
2008-08-05 08:01:12 51°23.617 3°3.123 351 1 303 13.5
2008-08-05 08:02:12 51°23.625 3°3.102 345.9 1 301 13.3
2008-08-05 08:03:12 51°23.633 3°3.083 342.4 0.9 301 13.3
2008-08-05 08:04:12 51°23.64 3°3.064 341 0.8 302 13.5
2008-08-05 08:05:12 51°23.647 3°3.046 342.1 0.8 303 13.3
2008-08-05 08:06:12 51°23.654 3°3.028 344.7 0.8 305 13.4
2008-08-05 08:07:12 51°23.661 3°3.009 347.6 0.7 302 13.4
2008-08-05 08:08:12 51°23.67 3°2.991 350.1 1.4 322 13.6
2008-08-05 08:09:12 51°23.707 3°2.98 28.9 2.8 11 13.7
2008-08-05 08:10:12 51°23.727 3°3.021 98.3 1.8 102 13.6
2008-08-05 08:11:12 51°23.694 3°3.039 163.1 2.8 190 13.3
2008-08-05 08:12:12 51°23.637 3°3.021 171.1 4.2 180 13.4
2008-08-05 08:13:12 51°23.558 3°3.036 167.5 5.2 186 13.6
2008-08-05 08:14:12 51°23.479 3°2.958 214.1 6.1 226 13.9
2008-08-05 08:15:12 51°23.407 3°2.83 217.1 6.7 228 9.7
2008-08-05 08:16:12 51°23.326 3°2.704 211.2 6.7 221 12.1
2008-08-05 08:17:12 51°23.26 3°2.604 214.6 4.2 229 12.6
2008-08-05 08:18:12 51°23.229 3°2.53 222.8 2.9 240 12.5
2008-08-05 08:19:12 51°23.214 3°2.469 229.3 2.1 252 12.4
2008-08-05 08:20:12 51°23.207 3°2.424 234 1.4 258 12.3
2008-08-05 08:21:12 51°23.207 3°2.39 228.4 1.2 277 10.5
2008-08-05 08:22:12 51°23.211 3°2.359 218 1.2 292 9.7
2008-08-05 08:23:12 51°23.221 3°2.335 200.2 1 309 10.3
2008-08-05 08:24:12 51°23.234 3°2.312 176.2 1.2 308 11.2
2008-08-05 08:25:12 51°23.247 3°2.287 153.1 1.2 306 11.6
2008-08-05 08:26:12 51°23.258 3°2.261 138 1.1 305 11.7
2008-08-05 08:27:12 51°23.268 3°2.235 129.7 1.1 300 11.7
2008-08-05 08:28:12 51°23.277 3°2.21 128.1 1 309 11.7
2008-08-05 08:29:12 51°23.284 3°2.187 132.1 1 293 12
2008-08-05 08:30:12 51°23.29 3°2.162 134.2 1 290 10.8
2008-08-05 08:31:12 51°23.296 3°2.136 138.7 1 292 10.5
2008-08-05 08:32:12 51°23.3 3°2.112 144.3 0.9 282 11.1
2008-08-05 08:33:12 51°23.304 3°2.088 148.2 1 281 11.4
2008-08-05 08:34:12 51°23.309 3°2.066 150.4 0.9 286 11.6
2008-08-05 08:35:12 51°23.313 3°2.044 150.5 0.8 291 11.7
2008-08-05 08:36:12 51°23.318 3°2.022 148.6 0.8 294 11.7
2008-08-05 08:37:12 51°23.322 3°2 146.7 0.9 286 11.7
2008-08-05 08:38:12 51°23.328 3°1.979 145 0.8 292 11.8
2008-08-05 08:39:12 51°23.332 3°1.959 143.9 0.8 293 11.7
2008-08-05 08:40:12 51°23.337 3°1.939 143.1 0.8 285 11.8
2008-08-05 08:41:12 51°23.34 3°1.919 142.9 0.7 280 11.7
2008-08-05 08:42:12 51°23.343 3°1.899 146.3 0.8 280 11.8
2008-08-05 08:43:12 51°23.346 3°1.879 146.2 0.7 283 11.8
2008-08-05 08:44:12 51°23.35 3°1.858 146.5 0.9 283 12
2008-08-05 08:45:12 51°23.353 3°1.836 149.3 0.8 284 11.9
2008-08-05 08:46:12 51°23.356 3°1.816 150.5 0.8 279 12
2008-08-05 08:47:12 51°23.357 3°1.796 151.6 0.7 251 12.1
2008-08-05 08:48:12 51°23.347 3°1.836 82.9 3 63 11.9
2008-08-05 08:49:12 51°23.394 3°1.854 18.6 2.7 349 12.1
2008-08-05 08:50:12 51°23.427 3°1.829 359.2 2 324 12.3
2008-08-05 08:51:12 51°23.45 3°1.795 342.1 1.8 313 12.6
2008-08-05 08:52:12 51°23.463 3°1.759 329.6 1.5 299 12.7
2008-08-05 08:53:12 51°23.474 3°1.727 324.5 1.3 299 13
2008-08-05 08:54:12 51°23.488 3°1.693 317.9 1.9 305 13
2008-08-05 08:55:12 51°23.505 3°1.637 292.5 2.6 287 13.2
2008-08-05 08:56:12 51°23.512 3°1.567 264.1 2.7 273 13.6
2008-08-05 08:57:12 51°23.505 3°1.499 232.2 2.5 251 13.9
2008-08-05 08:58:12 51°23.484 3°1.455 184.8 1.8 215 13.7
2008-08-05 08:59:12 51°23.459 3°1.448 144.8 1.6 173 13.5
2008-08-05 09:00:12 51°23.429 3°1.45 152.1 2 180 13.4
2008-08-05 09:01:12 51°23.395 3°1.449 154.6 2.1 182 13.1
2008-08-05 09:02:12 51°23.362 3°1.447 153.2 2 179 12.7
2008-08-05 09:03:12 51°23.327 3°1.448 151.9 2 180 12.2
2008-08-05 09:04:12 51°23.292 3°1.447 151.3 2.1 179 12
2008-08-05 09:05:12 51°23.258 3°1.447 151 2 180 12
2008-08-05 09:06:12 51°23.224 3°1.442 153.3 2.1 186 11.9
2008-08-05 09:07:12 51°23.19 3°1.439 151.3 2.1 184 11.9
2008-08-05 09:08:12 51°23.157 3°1.436 151.4 1.8 184 11.8
2008-08-05 09:09:12 51°23.129 3°1.427 151.7 1.5 195 11.7
2008-08-05 09:10:12 51°23.106 3°1.416 151.3 1.3 200 11.6
2008-08-05 09:11:12 51°23.087 3°1.402 151.4 1.3 205 11.5
2008-08-05 09:12:12 51°23.068 3°1.387 153.8 1.4 208 11.3
2008-08-05 09:13:12 51°23.049 3°1.37 156 1.3 212 11.4
2008-08-05 09:14:12 51°23.031 3°1.352 156.6 1.3 213 11.5
2008-08-05 09:15:12 51°23.013 3°1.335 155.1 1.2 211 11.6
2008-08-05 09:16:12 51°22.996 3°1.319 155.1 1.3 209 11.3
2008-08-05 09:17:12 51°22.977 3°1.301 158.6 1.4 210 11.5
2008-08-05 09:18:12 51°22.958 3°1.283 156.3 1.2 208 11.4
2008-08-05 09:19:12 51°22.94 3°1.268 149.7 1.2 209 11.4
2008-08-05 09:20:12 51°22.924 3°1.256 141 1 205 11.4
2008-08-05 09:21:12 51°22.909 3°1.246 134.1 0.9 202 11.3
2008-08-05 09:22:12 51°22.896 3°1.238 126.8 0.8 199 11.4
2008-08-05 09:23:12 51°22.884 3°1.233 121.1 0.9 189 11.3
2008-08-05 09:24:12 51°22.872 3°1.237 107.2 0.7 150 11.2
2008-08-05 09:25:12 51°22.865 3°1.252 91.4 0.8 110 11.1
2008-08-05 09:26:12 51°22.862 3°1.276 85.9 1 94 11.3
2008-08-05 09:27:12 51°22.863 3°1.307 74.4 1.2 64 11.1
2008-08-05 09:28:12 51°22.891 3°1.346 52 3.3 50 11
2008-08-05 09:29:12 51°22.927 3°1.433 54.6 4.4 53 10.7
2008-08-05 09:30:12 51°22.968 3°1.527 57.2 3.9 53 11.2
2008-08-05 09:31:12 51°22.998 3°1.612 66.3 3.6 64 11
2008-08-05 09:32:12 51°23.029 3°1.694 60.1 3.8 55 11
2008-08-05 09:33:12 51°23.06 3°1.785 69 3.9 71 11
2008-08-05 09:34:12 51°23.075 3°1.888 75.7 4 78 12
2008-08-05 09:35:12 51°23.092 3°1.993 73.8 4.1 76 11.5
2008-08-05 09:36:12 51°23.118 3°2.091 60.5 4 59 10.8
2008-08-05 09:37:12 51°23.155 3°2.181 60.3 4 57 10.2
2008-08-05 09:38:12 51°23.19 3°2.274 61.7 4.1 59 11.4
2008-08-05 09:39:12 51°23.227 3°2.367 59.3 4.2 55 9.5
2008-08-05 09:40:12 51°23.278 3°2.443 50.3 4.2 46 12.2
2008-08-05 09:41:12 51°23.316 3°2.536 62.8 4.2 62 12.3
2008-08-05 09:42:12 51°23.351 3°2.636 61.6 4.4 62 12.3
2008-08-05 09:43:12 51°23.383 3°2.738 64.5 4.2 65 12.1
2008-08-05 09:44:12 51°23.414 3°2.837 63.8 4.1 61 9.3
2008-08-05 09:45:12 51°23.441 3°2.934 66.7 4 67 11.9
2008-08-05 09:46:12 51°23.477 3°3.024 58.8 4.1 57 13.9
2008-08-05 09:47:12 51°23.513 3°3.117 60.9 4.1 58 13.8
2008-08-05 09:48:12 51°23.551 3°3.209 59.9 4.1 55 13.6
2008-08-05 09:49:12 51°23.59 3°3.299 60.3 4.1 56 13.1
2008-08-05 09:50:12 51°23.627 3°3.387 60.6 4 56 12.8
2008-08-05 09:51:12 51°23.679 3°3.418 5.7 4 337 13
2008-08-05 09:52:12 51°23.714 3°3.309 283 5.4 272 13.3
2008-08-05 09:53:12 51°23.669 3°3.195 204.1 5.4 214 13.1
2008-08-05 09:54:12 51°23.589 3°3.12 203.2 5.3 214 13.4
2008-08-05 09:55:12 51°23.528 3°3.041 212.5 4.3 224 14
2008-08-05 09:56:12 51°23.485 3°2.964 225.9 3.8 234 14.2
2008-08-05 09:57:12 51°23.453 3°2.879 244.6 3.8 245 11.7
2008-08-05 09:58:12 51°23.431 3°2.782 255.4 3.9 253 10.5
2008-08-05 09:59:12 51°23.409 3°2.684 252 3.9 251 12.5
2008-08-05 10:00:12 51°23.392 3°2.586 261.2 3.9 257 12.5
2008-08-05 10:01:12 51°23.377 3°2.482 262.1 4.1 257 12.6
2008-08-05 10:02:12 51°23.356 3°2.377 252.3 4.2 249 9.8
2008-08-05 10:03:12 51°23.321 3°2.28 229.4 4.2 232 12
2008-08-05 10:04:12 51°23.273 3°2.197 222.7 4.2 227 11.9
2008-08-05 10:05:12 51°23.228 3°2.107 229.7 4.4 231 11.1
2008-08-05 10:06:12 51°23.183 3°2.017 230.5 4.3 233 11.8
2008-08-05 10:07:12 51°23.144 3°1.919 242.3 4.4 241 11.8
2008-08-05 10:08:12 51°23.117 3°1.812 255.4 4.3 249 11.9
2008-08-05 10:09:13 51°23.094 3°1.701 259.7 4.3 256 11.4
2008-08-05 10:10:12 51°23.084 3°1.592 271.5 4.2 263 11.7
2008-08-05 10:11:12 51°23.065 3°1.484 255.9 4.2 251 11.7
2008-08-05 10:12:12 51°23.043 3°1.382 253.4 3.9 247 11.7
2008-08-05 10:13:12 51°23.001 3°1.31 195 3.5 202 12
2008-08-05 10:14:12 51°22.954 3°1.325 114.6 2.7 124 11.9
2008-08-05 10:15:12 51°22.974 3°1.392 50.7 4.1 49 11.6
2008-08-05 10:16:12 51°23.017 3°1.492 61.4 4.4 65 11.4
2008-08-05 10:17:12 51°23.042 3°1.6 71.1 4.3 77 11.8
2008-08-05 10:18:12 51°23.054 3°1.713 77.3 4.2 82 11.2
2008-08-05 10:19:12 51°23.065 3°1.821 76.1 4 80 12
2008-08-05 10:20:12 51°23.078 3°1.924 70.6 3.9 71 12.2
2008-08-05 10:21:12 51°23.106 3°2.018 62.5 3.9 62 11.7
2008-08-05 10:22:12 51°23.139 3°2.106 56.1 3.8 50 10.8
2008-08-05 10:23:13 51°23.192 3°2.168 43.9 4 35 10.1
2008-08-05 10:24:12 51°23.233 3°2.244 56.8 3.9 53 12.1
2008-08-05 10:25:13 51°23.272 3°2.331 60.1 4 59 11.5
2008-08-05 10:26:12 51°23.305 3°2.423 62.3 4 61 11.7
2008-08-05 10:27:13 51°23.335 3°2.52 63.6 4.1 63 12.7
2008-08-05 10:28:12 51°23.364 3°2.616 64 4.1 65 12.7
2008-08-05 10:29:12 51°23.394 3°2.713 63.4 4.1 62 12.7
2008-08-05 10:30:12 51°23.426 3°2.81 64.1 4.1 61 9.1
2008-08-05 10:31:12 51°23.457 3°2.901 64.9 3.8 63 11.9
2008-08-05 10:32:12 51°23.486 3°2.993 64.3 3.9 62 14.9
2008-08-05 10:33:12 51°23.515 3°3.085 62.6 3.9 62 14.4
2008-08-05 10:34:12 51°23.547 3°3.179 62.3 4 62 14.1
2008-08-05 10:35:12 51°23.576 3°3.274 63.2 4 65 13.7
2008-08-05 10:36:12 51°23.606 3°3.372 63.4 4.1 63 13.3
2008-08-05 10:37:12 51°23.639 3°3.457 44.9 3.3 29 12.8
2008-08-05 10:38:12 51°23.687 3°3.429 331 3.6 308 13.3
2008-08-05 10:39:13 51°23.695 3°3.322 263.4 4.6 253 13.7
2008-08-05 10:40:12 51°23.643 3°3.235 215.8 5.1 220 13.6
2008-08-05 10:41:13 51°23.583 3°3.141 227 4.9 227 13.8
2008-08-05 10:42:12 51°23.535 3°3.041 239.3 4.7 239 14.3
2008-08-05 10:43:12 51°23.499 3°2.931 243.3 4.7 242 13.2
2008-08-05 10:44:12 51°23.463 3°2.821 243.8 4.7 244 10.7
2008-08-05 10:45:12 51°23.43 3°2.71 247.1 4.6 246 12.7
2008-08-05 10:46:13 51°23.397 3°2.599 245.4 4.3 245 12.7
2008-08-05 10:47:12 51°23.368 3°2.501 247.5 4 245 12.8
2008-08-05 10:48:13 51°23.339 3°2.407 243 3.9 242 11.5
2008-08-05 10:49:12 51°23.31 3°2.318 238.6 3.8 240 12
2008-08-05 10:50:12 51°23.274 3°2.235 229 3.7 233 12.1
2008-08-05 10:51:12 51°23.237 3°2.156 230.8 3.9 234 10.4
2008-08-05 10:52:12 51°23.199 3°2.065 234.3 4.2 236 11.8
2008-08-05 10:53:12 51°23.16 3°1.97 234.9 4.3 236 12.3
2008-08-05 10:54:12 51°23.121 3°1.872 235.8 4.3 240 12.3
2008-08-05 10:55:13 51°23.1 3°1.767 265.1 4.1 260 11.8
2008-08-05 10:56:12 51°23.093 3°1.66 271.1 4.2 265 12
2008-08-05 10:57:13 51°23.085 3°1.547 268.5 4.2 261 12.2
2008-08-05 10:58:12 51°23.069 3°1.439 254.6 4.2 251 12.2
2008-08-05 10:59:13 51°23.04 3°1.333 242.3 4.4 241 12.2
2008-08-05 11:00:12 51°22.991 3°1.251 198.8 4.6 202 12.4
2008-08-05 11:01:13 51°22.941 3°1.3 94.5 3.7 94 12.2
2008-08-05 11:02:13 51°22.977 3°1.436 67.9 6.4 71 11.9
2008-08-05 11:03:12 51°23.001 3°1.557 63.1 3.9 61 11.9
2008-08-05 11:04:13 51°23.029 3°1.642 68.9 3.3 71 11.9
2008-08-05 11:05:12 51°23.045 3°1.723 68.8 3.2 71 11.4
2008-08-05 11:06:13 51°23.062 3°1.803 71.7 3.1 76 12.2
2008-08-05 11:07:12 51°23.083 3°1.902 65.3 4.5 66 12.6
2008-08-05 11:08:12 51°23.123 3°2.005 57.3 4.6 58 12.2
2008-08-05 11:09:12 51°23.149 3°2.117 70.6 4.5 69 10.9
2008-08-05 11:10:12 51°23.185 3°2.22 58.2 4.4 58 12.2
2008-08-05 11:11:13 51°23.223 3°2.318 58 4.2 58 11.7
2008-08-05 11:12:12 51°23.259 3°2.414 58.9 4.3 61 11.9
2008-08-05 11:13:13 51°23.292 3°2.519 59.8 4.4 62 13.1
2008-08-05 11:14:12 51°23.327 3°2.622 58.9 4.5 61 13.1
2008-08-05 11:15:13 51°23.364 3°2.729 59.1 4.6 61 12.9
2008-08-05 11:16:12 51°23.398 3°2.833 60.1 4.5 61 8.7
2008-08-05 11:17:13 51°23.433 3°2.94 60 4.5 61 12.6
2008-08-05 11:18:13 51°23.469 3°3.043 58.8 4.4 59 14.4
2008-08-05 11:19:13 51°23.507 3°3.147 59.1 4.5 61 14.3
2008-08-05 11:20:13 51°23.543 3°3.253 59.4 4.6 61 14
2008-08-05 11:21:12 51°23.577 3°3.359 60.2 4.5 63 13.7
2008-08-05 11:22:13 51°23.612 3°3.469 59.8 4.6 62 12.5
2008-08-05 11:23:12 51°23.659 3°3.527 13.2 3.5 356 9.5
2008-08-05 11:24:13 51°23.698 3°3.451 293.1 4.4 278 13.7
2008-08-05 11:25:13 51°23.661 3°3.335 231.4 5.4 229 13.7
2008-08-05 11:26:12 51°23.601 3°3.237 230.5 5 230 13.8
2008-08-05 11:27:13 51°23.558 3°3.133 243.5 4.3 238 14.3
2008-08-05 11:28:12 51°23.524 3°3.037 245.8 4.2 243 14.8
2008-08-05 11:29:13 51°23.488 3°2.94 243.2 4.2 240 13.8
2008-08-05 11:30:12 51°23.456 3°2.847 248.2 4.1 243 12.1
2008-08-05 11:31:13 51°23.425 3°2.747 249 4.1 245 12.7
2008-08-05 11:32:12 51°23.395 3°2.65 248.5 4.1 243 13.2
2008-08-05 11:33:13 51°23.366 3°2.548 252.2 4.1 249 13.3
2008-08-05 11:34:12 51°23.363 3°2.463 298.2 2.4 282 13.4
2008-08-05 11:35:13 51°23.372 3°2.415 313.4 1.6 289 12.3
2008-08-05 11:36:13 51°23.378 3°2.348 278.4 3.2 264 11.9
2008-08-05 11:37:13 51°23.344 3°2.268 222.6 4.2 220 12.8
2008-08-05 11:38:13 51°23.29 3°2.184 227.8 4.7 227 12.9
2008-08-05 11:39:12 51°23.235 3°2.102 221.9 4.5 222 12
2008-08-05 11:40:13 51°23.179 3°2.023 224.1 4.4 224 12.4
2008-08-05 11:41:13 51°23.131 3°1.94 232.2 4.2 231 12.7
2008-08-05 11:42:13 51°23.104 3°1.849 267 3.6 258 12.8
2008-08-05 11:43:13 51°23.096 3°1.75 273.7 3.9 264 11.9
2008-08-05 11:44:12 51°23.089 3°1.647 272.9 4 263 12.4
2008-08-05 11:45:13 51°23.079 3°1.539 266.3 4 258 12.6
2008-08-05 11:46:12 51°23.055 3°1.438 251.7 4.1 245 12.3
2008-08-05 11:47:13 51°23.025 3°1.335 251.9 4.2 244 12.7
2008-08-05 11:48:12 51°22.976 3°1.267 194.9 4.4 190 12.7
2008-08-05 11:49:13 51°22.926 3°1.33 98.3 3.9 98 12.4
2008-08-05 11:50:12 51°22.957 3°1.44 63 5.5 66 12
2008-08-05 11:51:13 51°23.006 3°1.583 60.1 5.8 61 12.3
2008-08-05 11:52:13 51°23.037 3°1.69 63.3 3.6 68 12.1
2008-08-05 11:53:13 51°23.051 3°1.782 73.1 4 78 12.1
2008-08-05 11:54:13 51°23.069 3°1.892 69.5 4.4 72 13.1
2008-08-05 11:55:12 51°23.091 3°2.004 68.8 4.5 73 12.6
2008-08-05 11:56:13 51°23.121 3°2.113 58.2 4.3 59 11.2
2008-08-05 11:57:12 51°23.159 3°2.204 55.1 4.2 59 12.3
2008-08-05 11:58:13 51°23.193 3°2.307 59.1 4.3 62 12
2008-08-05 11:59:13 51°23.233 3°2.402 51.6 4.3 53 11.7
2008-08-05 12:00:13 51°23.276 3°2.496 52.1 4.4 58 13.4
2008-08-05 12:01:13 51°23.317 3°2.591 52.8 4.4 55 13.4
2008-08-05 12:02:13 51°23.354 3°2.694 58.7 4.5 62 13.4
2008-08-05 12:03:13 51°23.389 3°2.8 58.7 4.5 62 11.6
2008-08-05 12:04:13 51°23.423 3°2.904 58.5 4.5 62 12.4
2008-08-05 12:05:13 51°23.459 3°3.01 57.9 4.6 62 14.7
2008-08-05 12:06:13 51°23.495 3°3.118 58.9 4.6 63 14.7
2008-08-05 12:07:13 51°23.53 3°3.228 58.5 4.8 64 14.3
2008-08-05 12:08:13 51°23.567 3°3.338 57.3 4.6 60 14.1
2008-08-05 12:09:13 51°23.612 3°3.438 47.1 4.6 50 13.6
2008-08-05 12:10:13 51°23.66 3°3.529 46.4 4.2 45 10.2
2008-08-05 12:11:13 51°23.714 3°3.518 327.9 3.8 310 12.5
2008-08-05 12:12:13 51°23.706 3°3.411 242.3 4.7 231 14.3
2008-08-05 12:13:12 51°23.654 3°3.329 234 4.1 226 14.2
2008-08-05 12:14:13 51°23.611 3°3.246 239.5 4 230 14.2
2008-08-05 12:15:13 51°23.566 3°3.161 236.3 4.3 229 14.5
2008-08-05 12:16:13 51°23.528 3°3.07 247.6 4.1 241 15.2
2008-08-05 12:17:13 51°23.494 3°2.975 246.1 4.1 238 13.1
2008-08-05 12:18:13 51°23.46 3°2.882 244.9 4.1 238 12.6
2008-08-05 12:19:13 51°23.424 3°2.79 244.7 4.1 239 11.2
2008-08-05 12:20:13 51°23.39 3°2.695 249.6 4.1 242 13.5
2008-08-05 12:21:13 51°23.356 3°2.601 244.6 4.1 238 13.7
2008-08-05 12:22:13 51°23.32 3°2.508 246.3 4.1 240 13.6
2008-08-05 12:23:13 51°23.292 3°2.41 255.4 4 248 12.3
2008-08-05 12:24:13 51°23.265 3°2.311 251.7 4.1 244 12.5
2008-08-05 12:25:13 51°23.232 3°2.214 247.2 4.2 240 13
2008-08-05 12:26:13 51°23.199 3°2.118 247.5 4.2 240 11.6
2008-08-05 12:27:13 51°23.166 3°2.022 248.2 4.1 241 12.8
2008-08-05 12:28:13 51°23.135 3°1.925 254.2 4.1 247 13.1
2008-08-05 12:29:13 51°23.117 3°1.823 264.5 4 256 13.1
2008-08-05 12:30:13 51°23.099 3°1.72 259.8 4 253 12.5
2008-08-05 12:31:13 51°23.078 3°1.616 260 4.1 253 12.7
2008-08-05 12:32:13 51°23.058 3°1.512 259.7 4.1 252 13
2008-08-05 12:33:13 51°23.037 3°1.408 259.3 4.1 252 12.8
2008-08-05 12:34:13 51°22.995 3°1.326 209.6 4.2 202 13.1
2008-08-05 12:35:13 51°22.937 3°1.362 121.9 3.7 123 12.8
2008-08-05 12:36:13 51°22.955 3°1.461 52 5.1 56 12.4
2008-08-05 12:37:13 51°22.997 3°1.57 58.4 4.5 63 12.7
2008-08-05 12:38:13 51°23.025 3°1.672 61.6 4 66 12.4
2008-08-05 12:39:13 51°23.048 3°1.769 65.9 3.8 73 12.3
2008-08-05 12:40:13 51°23.064 3°1.867 67.2 3.8 75 13.6
2008-08-05 12:41:13 51°23.086 3°1.959 56.3 3.6 63 13.2
2008-08-05 12:42:13 51°23.116 3°2.045 53.7 3.8 60 12.8
2008-08-05 12:43:13 51°23.148 3°2.135 55 3.9 60 11.1
2008-08-05 12:44:13 51°23.178 3°2.227 55.9 3.9 61 13
2008-08-05 12:45:13 51°23.208 3°2.321 55 4 63 12.4
2008-08-05 12:46:13 51°23.239 3°2.415 53.6 4 62 12.9
2008-08-05 12:47:13 51°23.272 3°2.507 51.9 3.9 59 14.1
2008-08-05 12:48:13 51°23.307 3°2.597 48.3 4 55 14.1
2008-08-05 12:49:13 51°23.344 3°2.687 50.6 4.1 59 14
2008-08-05 12:50:13 51°23.378 3°2.779 51 4 58 13.1
2008-08-05 12:51:13 51°23.412 3°2.87 49 4 59 12.6
2008-08-05 12:52:13 51°23.446 3°2.961 49.1 4 59 14.6
2008-08-05 12:53:13 51°23.48 3°3.051 48.2 3.9 58 15.5
2008-08-05 12:54:13 51°23.516 3°3.14 49.4 4 58 15.4
2008-08-05 12:55:13 51°23.55 3°3.229 49.3 3.9 58 15.1
2008-08-05 12:56:13 51°23.584 3°3.318 50.3 3.9 61 14.8
2008-08-05 12:57:13 51°23.618 3°3.408 49.6 4 59 14.4
2008-08-05 12:58:13 51°23.651 3°3.498 49.2 4 60 12.9
2008-08-05 12:59:13 51°23.688 3°3.564 17.3 2.8 22 13
2008-08-05 13:00:13 51°23.724 3°3.518 292.4 3.9 277 13.4
2008-08-05 13:01:13 51°23.685 3°3.44 216.7 4.1 209 14.8
2008-08-05 13:02:13 51°23.63 3°3.368 237.1 4.3 229 14.7
2008-08-05 13:03:13 51°23.592 3°3.272 253.2 4.3 243 15
2008-08-05 13:04:13 51°23.57 3°3.163 266.5 4.3 258 15.1
2008-08-05 13:05:13 51°23.544 3°3.053 253.2 4.5 245 15.5
2008-08-05 13:06:13 51°23.511 3°2.95 250.1 4.3 240 15.1
2008-08-05 13:07:13 51°23.478 3°2.853 250.3 4.1 241 13.4
2008-08-05 13:08:13 51°23.446 3°2.759 250.5 4 243 13.1
2008-08-05 13:09:13 51°23.416 3°2.664 251.9 3.9 245 14.1
2008-08-05 13:10:13 51°23.385 3°2.57 247.9 4 240 14.1
2008-08-05 13:11:13 51°23.349 3°2.481 244.7 4 236 14.5
2008-08-05 13:12:13 51°23.311 3°2.395 244.7 3.9 234 12.1
2008-08-05 13:13:13 51°23.274 3°2.312 247 3.8 236 13.4
2008-08-05 13:14:13 51°23.241 3°2.228 247.3 3.7 237 14
2008-08-05 13:15:13 51°23.207 3°2.146 245.5 3.7 237 11.8
2008-08-05 13:16:13 51°23.171 3°2.066 243.2 3.7 232 13.2
2008-08-05 13:17:13 51°23.136 3°1.986 250.6 3.5 243 13.5
2008-08-05 13:18:13 51°23.117 3°1.898 261.1 3.5 255 14.1
2008-08-05 13:19:13 51°23.104 3°1.808 263.8 3.5 258 13.9
2008-08-05 13:20:13 51°23.091 3°1.718 262.8 3.5 259 13.2
2008-08-05 13:21:13 51°23.083 3°1.629 268.7 3.2 258 13.8
2008-08-05 13:22:13 51°23.058 3°1.553 247.1 3.3 244 13.9
2008-08-05 13:23:13 51°23.044 3°1.472 265.5 3.2 260 13.6
2008-08-05 13:24:13 51°23.015 3°1.417 219.9 2.8 195 13.6
2008-08-05 13:25:13 51°22.97 3°1.444 153.8 3.4 136 13.5
2008-08-05 13:26:13 51°22.961 3°1.553 68.6 4.6 67 13.7
2008-08-05 13:27:13 51°23.003 3°1.633 30.1 3.9 43 13.5
2008-08-05 13:28:13 51°23.052 3°1.714 38.6 4.6 54 13.3
2008-08-05 13:29:13 51°23.081 3°1.832 70.2 5 79 14.4
2008-08-05 13:30:13 51°23.094 3°1.964 76.1 4.9 80 14.1
2008-08-05 13:31:13 51°23.111 3°2.079 62.8 4.2 69 13.5
2008-08-05 13:32:13 51°23.137 3°2.175 46.4 3.8 61 12.4
2008-08-05 13:33:13 51°23.169 3°2.261 38.9 3.9 57 13.8
2008-08-05 13:34:13 51°23.204 3°2.352 42.5 4.1 60 12.4
2008-08-05 13:35:13 51°23.233 3°2.44 40.4 2.7 66 15
2008-08-05 13:36:13 51°23.249 3°2.496 21 2.1 65 15.1
2008-08-05 13:37:13 51°23.263 3°2.542 9.3 1.8 65 15
2008-08-05 13:38:13 51°23.273 3°2.585 359.3 1.6 73 15.2
2008-08-05 13:39:13 51°23.28 3°2.626 352.5 1.7 77 15.1
2008-08-05 13:40:13 51°23.284 3°2.668 344.1 1.6 82 15.1
2008-08-05 13:41:13 51°23.286 3°2.71 335.9 1.7 85 14.9
2008-08-05 13:42:13 51°23.288 3°2.756 331.6 1.9 88 14.6
2008-08-05 13:43:13 51°23.298 3°2.736 265.8 3.2 250 14.8
2008-08-05 13:44:13 51°23.237 3°2.564 246.8 10 244 15.2
2008-08-05 13:45:13 51°23.174 3°2.306 251.2 10 248 12.9
2008-08-05 13:46:13 51°23.164 3°2.149 272.9 5.6 276 12.3
2008-08-05 13:47:13 51°23.165 3°1.993 265.2 5.2 264 14.5
2008-08-05 13:48:13 51°23.146 3°1.89 253.1 3.5 247 14.7
2008-08-05 13:49:13 51°23.123 3°1.814 253.1 2.9 246 14.7
2008-08-05 13:50:13 51°23.114 3°1.751 269.2 2.1 282 13.9
2008-08-05 13:51:13 51°23.149 3°1.735 333.5 3 15 14.1
2008-08-05 13:52:13 51°23.206 3°1.806 31.8 7 47 14.9
2008-08-05 13:53:13 51°23.285 3°2.066 67.9 13.1 69 14.6
2008-08-05 13:54:13 51°23.361 3°2.412 70.8 14 73 12.6
2008-08-05 13:55:13 51°23.433 3°2.767 70.9 14 72 14.9
2008-08-05 13:56:13 51°23.476 3°3.026 74.3 7.9 75 17.1
2008-08-05 13:57:13 51°23.506 3°3.165 58.7 2.5 80 16.5
2008-08-05 13:58:13 51°23.513 3°3.221 55.2 2.2 76 16.3
2008-08-05 13:59:13 51°23.52 3°3.283 52.6 2.3 74 16.2
2008-08-05 14:00:13 51°23.53 3°3.343 41.5 2.3 73 15.9
2008-08-05 14:01:13 51°23.542 3°3.403 26.6 2.3 71 15.6
2008-08-05 14:02:13 51°23.553 3°3.465 28.4 2.5 74 14.2
2008-08-05 14:03:13 51°23.564 3°3.536 32 2.7 77 14.2
2008-08-05 14:04:13 51°23.575 3°3.604 30.3 2.6 76 15.4
2008-08-05 14:05:13 51°23.586 3°3.672 27.5 2.6 74 15.6
2008-08-05 14:06:13 51°23.597 3°3.739 21.1 2.6 75 15.6
2008-08-05 14:07:13 51°23.61 3°3.804 16.4 2.6 74 15.4
2008-08-05 14:08:13 51°23.627 3°3.872 17.3 3.8 57 15.4
2008-08-05 14:09:13 51°23.643 3°4.022 110.2 7.2 111 15
2008-08-05 14:10:13 51°23.567 3°4.071 221.5 4.2 221 15.3
2008-08-05 14:11:13 51°23.523 3°3.896 255.1 9 251 15.3
2008-08-05 14:12:13 51°23.448 3°3.665 244.1 10.1 238 15.2
2008-08-05 14:13:13 51°23.357 3°3.438 243 10.1 239 14.1
2008-08-05 14:14:13 51°23.276 3°3.205 246.7 10 245 15
2008-08-05 14:15:13 51°23.204 3°2.967 245.6 9.9 244 15.5
2008-08-05 14:16:13 51°23.125 3°2.734 246.2 9.9 240 13.2
2008-08-05 14:17:13 51°23.047 3°2.501 243.8 10 243 15.4
2008-08-05 14:18:13 51°22.973 3°2.262 247.3 10 246 14.8
2008-08-05 14:19:13 51°22.908 3°2.027 246.8 8.5 244 12.3
2008-08-05 14:20:13 51°22.896 3°1.89 281 3.5 302 14.7
2008-08-05 14:21:12 51°22.916 3°1.843 265.5 1.4 282 14.9
2008-08-05 14:22:13 51°22.921 3°1.801 276.7 2.1 310 14.8
2008-08-05 14:23:12 51°22.935 3°1.755 265.6 2.1 284 13.8
2008-08-05 14:24:13 51°22.955 3°1.698 281.1 2.6 307 14.2
2008-08-05 14:25:13 51°22.981 3°1.676 297.6 1.8 12 14.4
2008-08-05 14:26:13 51°23.012 3°1.703 314.4 2.3 36 14.4
2008-08-05 14:27:13 51°23.04 3°1.745 319.2 2.4 47 14.4
2008-08-05 14:28:13 51°23.066 3°1.795 324.2 2.4 51 14.9
2008-08-05 14:29:13 51°23.092 3°1.847 327.4 2.4 55 15.7
2008-08-05 14:30:13 51°23.115 3°1.903 332 2.5 58 15.5
2008-08-05 14:31:13 51°23.138 3°1.961 337.7 2.7 52 15.4
2008-08-05 14:32:13 51°23.172 3°1.984 292.6 1.7 350 15.3
2008-08-05 14:33:13 51°23.157 3°1.953 223.2 4.2 205 15.2
2008-08-05 14:34:13 51°23.092 3°1.854 233.9 5.9 230 15.6
2008-08-05 14:35:13 51°23.035 3°1.758 233.9 3.3 223 14.4
2008-08-05 14:36:13 51°23.013 3°1.724 245.9 0.8 233 14.3
2008-08-05 14:37:13 51°23.016 3°1.721 261.2 0.6 30 14.3
2008-08-05 14:38:13 51°23.029 3°1.738 267.8 1.2 50 14.2
2008-08-05 14:39:12 51°23.044 3°1.764 269.9 1.4 45 14.5
2008-08-05 14:40:13 51°23.059 3°1.793 259.7 1.1 56 15
2008-08-05 14:41:13 51°23.053 3°1.816 210.7 1.8 157 15.4
2008-08-05 14:42:13 51°23.021 3°1.8 236.9 1.1 215 15.2
2008-08-05 14:43:13 51°23.02 3°1.794 255.5 0.3 2 15
2008-08-05 14:44:13 51°23.031 3°1.799 266 0.9 18 15.1
2008-08-05 14:45:13 51°23.049 3°1.806 277.3 1.6 355 15.3
2008-08-05 14:46:13 51°23.112 3°1.83 2 6 32 15.4
2008-08-05 14:47:13 51°23.156 3°1.986 96.3 6.1 89 15.2
2008-08-05 14:48:13 51°23.137 3°2.113 150.6 4.2 120 14.2
2008-08-05 14:49:13 51°23.1 3°2.146 226.9 1.5 213 12.5
2008-08-05 14:50:13 51°23.111 3°2.106 272.5 1.6 295 13.9
2008-08-05 14:51:13 51°23.109 3°2.082 248.5 0.4 249 14.7
2008-08-05 14:52:13 51°23.11 3°2.081 251.6 0.4 10 14.7
2008-08-05 14:53:13 51°23.118 3°2.088 263.9 0.7 23 14.6
2008-08-05 14:54:13 51°23.153 3°2.082 318.5 4.1 3 14.5
2008-08-05 14:55:13 51°23.228 3°2.2 65.6 8.1 70 14.9
2008-08-05 14:56:13 51°23.296 3°2.489 69.1 13 68 15.9
2008-08-05 14:57:13 51°23.379 3°2.817 67.9 13.4 67 14.1
2008-08-05 14:58:13 51°23.478 3°3.137 61.9 13.4 61 16.8
2008-08-05 14:59:13 51°23.572 3°3.395 50.2 8.1 53 16.4
2008-08-05 15:00:13 51°23.645 3°3.498 8.5 5 30 14.4
2008-08-05 15:01:13 51°23.7 3°3.508 293.8 2.2 329 15.4
2008-08-05 15:02:13 51°23.685 3°3.464 232.5 3.2 222 16.4
2008-08-05 15:03:13 51°23.646 3°3.38 239.4 4.4 237 16.6
2008-08-05 15:04:13 51°23.604 3°3.296 237.4 2.9 229 16.6
2008-08-05 15:05:13 51°23.587 3°3.267 244.6 0.8 229 16.9
2008-08-05 15:06:13 51°23.583 3°3.263 243.8 0.2 146 16.9
2008-08-05 15:07:13 51°23.572 3°3.258 233.7 1.4 203 17
2008-08-05 15:08:13 51°23.544 3°3.226 232.5 2.6 215 17.1
2008-08-05 15:09:13 51°23.506 3°3.143 242.6 4.5 238 17.3
2008-08-05 15:10:13 51°23.47 3°3.033 243.7 4.8 241 17.4
2008-08-05 15:11:13 51°23.437 3°2.928 245.2 3.2 248 15.7
2008-08-05 15:12:13 51°23.429 3°2.883 255.4 0.9 270 15
2008-08-05 15:13:13 51°23.433 3°2.875 253.6 0.3 13 14.9
2008-08-05 15:14:13 51°23.434 3°2.879 242.7 0.3 163 15.1
2008-08-05 15:15:13 51°23.424 3°2.872 237.1 1.4 212 14.9
2008-08-05 15:16:13 51°23.4 3°2.832 238.9 1.8 226 12.6
2008-08-05 15:17:13 51°23.385 3°2.816 237.4 0.9 174 12.4
2008-08-05 15:18:13 51°23.376 3°2.825 234.8 0.7 155 11.6
2008-08-05 15:19:13 51°23.366 3°2.812 245.2 1.2 239 12.8
2008-08-05 15:20:13 51°23.359 3°2.774 253.5 1.3 264 15.1
2008-08-05 15:21:13 51°23.354 3°2.734 247.1 2 249 15.6
2008-08-05 15:22:13 51°23.34 3°2.678 248.1 2.3 246 16
2008-08-05 15:23:13 51°23.338 3°2.644 256.6 0.9 293 16
2008-08-05 15:24:13 51°23.346 3°2.633 257.1 0.6 330 16
2008-08-05 15:25:13 51°23.345 3°2.613 245.9 1.3 248 15.9
2008-08-05 15:26:13 51°23.327 3°2.56 241.2 3.2 240 16
2008-08-05 15:27:13 51°23.295 3°2.476 240.2 3.9 241 16
2008-08-05 15:28:13 51°23.268 3°2.411 238.5 1.8 225 14.7
2008-08-05 15:29:13 51°23.252 3°2.4 226.3 0.6 176 13.9
2008-08-05 15:30:13 51°23.239 3°2.409 222.6 1 180 14.7
2008-08-05 15:31:13 51°23.218 3°2.384 238.3 2 230 13.8
2008-08-05 15:32:13 51°23.207 3°2.321 253.2 2.8 261 14.2
2008-08-05 15:33:13 51°23.21 3°2.274 263.7 1.2 293 15.1
2008-08-05 15:34:13 51°23.223 3°2.259 267.3 0.7 344 15.4
2008-08-05 15:35:13 51°23.236 3°2.259 259.8 0.6 9 15.4
2008-08-05 15:36:13 51°23.243 3°2.262 246.7 0.3 29 15.3
2008-08-05 15:37:13 51°23.234 3°2.243 237 2.1 220 15.6
2008-08-05 15:38:13 51°23.196 3°2.203 224.2 2.5 211 15.2
2008-08-05 15:39:13 51°23.174 3°2.185 232.5 1 196 14.2
2008-08-05 15:40:13 51°23.167 3°2.183 235.8 0.3 158 14
2008-08-05 15:41:13 51°23.165 3°2.189 234.1 0.4 115 14.2
2008-08-05 15:42:13 51°23.162 3°2.201 227.7 0.6 108 14.7
2008-08-05 15:43:13 51°23.161 3°2.223 226.9 0.9 79 15
2008-08-05 15:44:13 51°23.165 3°2.253 230.3 1.4 75 14.9
2008-08-05 15:45:13 51°23.172 3°2.289 232.8 1.5 70 14.7
2008-08-05 15:46:13 51°23.157 3°2.273 234.1 4.2 227 14.5
2008-08-05 15:47:13 51°23.07 3°2.153 222.5 9 218 12.8
2008-08-05 15:48:13 51°22.939 3°1.984 221.6 10.5 217 14.1
2008-08-05 15:49:13 51°22.806 3°1.802 222.7 10.6 220 14.4
2008-08-05 15:50:13 51°22.673 3°1.618 222.6 10.6 222 13.6
2008-08-05 15:51:13 51°22.542 3°1.433 223.4 10.5 223 13.1
2008-08-05 15:52:13 51°22.414 3°1.237 225.8 10.6 228 13.9
2008-08-05 15:53:13 51°22.285 3°1.043 224.2 10.8 225 13
2008-08-05 15:54:13 51°22.16 3°0.841 225.1 10.8 225 13.7
2008-08-05 15:55:13 51°22.025 3°0.648 222.6 10.8 221 13.7
2008-08-05 15:56:13 51°21.892 3°0.455 225.6 10.9 225 13.8
2008-08-05 15:57:13 51°21.764 3°0.254 223 10.9 222 13.9
2008-08-05 15:58:13 51°21.636 3°0.055 229.2 10.6 225 13.8
2008-08-05 15:59:13 51°21.518 2°59.847 228.3 10.5 227 13.9
2008-08-05 16:00:13 51°21.4 2°59.636 230.5 10.6 228 13.9
2008-08-05 16:01:13 51°21.286 2°59.42 231.1 10.6 230 14
2008-08-05 16:02:13 51°21.171 2°59.203 231.1 10.7 229 13.9
2008-08-05 16:03:13 51°21.058 2°58.985 230.7 10.6 230 14
2008-08-05 16:04:13 51°20.948 2°58.762 231.2 10.7 231 14.1
2008-08-05 16:05:13 51°20.833 2°58.542 230.8 10.8 229 14.1
2008-08-05 16:06:13 51°20.719 2°58.322 230.6 10.8 229 14.1
2008-08-05 16:07:13 51°20.606 2°58.1 230.8 10.9 228 13.9
2008-08-05 16:08:13 51°20.497 2°57.866 234.4 11.1 233 13.9
2008-08-05 16:09:13 51°20.392 2°57.627 233.1 11 237 14.2
2008-08-05 16:10:13 51°20.281 2°57.398 229.4 10.8 231 14
2008-08-05 16:11:13 51°20.166 2°57.179 229.7 10.9 232 13.9
2008-08-05 16:12:13 51°20.054 2°56.95 232.3 10.9 233 14
2008-08-05 16:13:13 51°19.944 2°56.72 230.1 11 232 13.9
2008-08-05 16:14:13 51°19.822 2°56.501 227.5 11 228 14
2008-08-05 16:15:13 51°19.698 2°56.284 226.7 11 226 13.7
2008-08-05 16:16:13 51°19.568 2°56.078 224.2 11 226 13.6
2008-08-05 16:17:13 51°19.44 2°55.868 224.2 11 228 13.8
2008-08-05 16:18:13 51°19.313 2°55.657 225.6 11.1 226 13.5
2008-08-05 16:19:13 51°19.186 2°55.445 225.6 11 226 13.6
2008-08-05 16:20:13 51°19.062 2°55.228 227.3 11 229 13.5
2008-08-05 16:21:13 51°18.938 2°55.012 225.2 10.9 226 13.3
2008-08-05 16:22:13 51°18.813 2°54.796 225.3 11.1 228 13.3
2008-08-05 16:23:13 51°18.688 2°54.582 226.4 11.1 227 13.2
2008-08-05 16:24:13 51°18.563 2°54.365 227 11 224 13.1
2008-08-05 16:25:13 51°18.44 2°54.145 224.8 11.1 226 12.9
2008-08-05 16:26:13 51°18.3 2°53.954 217.3 11.1 221 12.7
2008-08-05 16:27:13 51°18.15 2°53.785 212.5 11 206 12.7
2008-08-05 16:28:13 51°17.986 2°53.649 207.5 11.1 208 12.5
2008-08-05 16:29:13 51°17.821 2°53.516 206.7 11.1 206 12.4
2008-08-05 16:30:13 51°17.652 2°53.394 202.5 11.2 202 12.2
2008-08-05 16:31:13 51°17.472 2°53.321 194.2 11.1 194 11.8
2008-08-05 16:32:13 51°17.29 2°53.26 190.8 11.1 188 11.4
2008-08-05 16:33:13 51°17.103 2°53.247 183.2 11.2 179 10.9
2008-08-05 16:34:13 51°16.916 2°53.28 172.7 11.4 166 10.5
2008-08-05 16:35:13 51°16.728 2°53.357 170 11.7 165 13.5
2008-08-05 16:36:13 51°16.54 2°53.445 167.9 11.7 163 13.8
2008-08-05 16:37:13 51°16.352 2°53.533 168.6 11.7 165 13.8
2008-08-05 16:38:13 51°16.164 2°53.615 168.9 11.7 165 13.6
2008-08-05 16:39:13 51°15.974 2°53.687 170 11.7 166 13.5
2008-08-05 16:40:13 51°15.784 2°53.767 168 11.8 164 13
2008-08-05 16:41:13 51°15.596 2°53.873 162.5 12.2 159 12.4
2008-08-05 16:42:13 51°15.412 2°53.987 159.1 11.7 155 12.2
2008-08-05 16:43:13 51°15.236 2°54.12 157.1 11.8 154 11.6
2008-08-05 16:44:13 51°15.061 2°54.257 154.1 11.6 154 11
2008-08-05 16:45:13 51°14.896 2°54.424 147.9 11.9 145 11.4
2008-08-05 16:46:13 51°14.738 2°54.615 146.1 11.9 141 11.9
2008-08-05 16:47:13 51°14.578 2°54.803 146.9 11.9 143 11.9
2008-08-05 16:48:13 51°14.428 2°55.013 137.9 11.9 135 12.1
2008-08-05 16:49:13 51°14.302 2°55.213 134.4 9.7 136 12.8
2008-08-05 16:50:13 51°14.166 2°55.373 149.8 10.5 152 12.8
2008-08-05 16:51:13 51°14.006 2°55.494 153.4 10.8 155 12.6
2008-08-05 16:52:13 51°13.854 2°55.603 152.8 8.6 155 -999
2008-08-05 16:53:13 51°13.764 2°55.703 129.4 6.6 132 -999